createdAt,value
2022-10-22T00:01:17.714Z,1004.1
2022-10-22T00:02:17.788Z,1004.1
2022-10-22T00:03:17.730Z,1004.1
2022-10-22T00:05:17.784Z,1004.1
2022-10-22T00:06:17.715Z,1004.1
2022-10-22T00:07:17.704Z,1004.1
2022-10-22T00:08:17.698Z,1004.1
2022-10-22T00:09:17.768Z,1004.1
2022-10-22T00:10:17.709Z,1004.1
2022-10-22T00:11:17.699Z,1004.1
2022-10-22T00:13:17.706Z,1004.1
2022-10-22T00:14:17.715Z,1004.1
2022-10-22T00:15:17.708Z,1004.1
2022-10-22T00:16:17.709Z,1004.1
2022-10-22T00:18:17.701Z,1004.1
2022-10-22T00:19:17.714Z,1004.2
2022-10-22T00:20:17.699Z,1004.2
2022-10-22T00:22:17.708Z,1004.2
2022-10-22T00:23:17.700Z,1004.2
2022-10-22T00:24:17.708Z,1004.2
2022-10-22T00:25:17.699Z,1004.2
2022-10-22T00:26:17.711Z,1004.2
2022-10-22T00:27:17.700Z,1004.2
2022-10-22T00:28:17.708Z,1004.3
2022-10-22T00:29:17.706Z,1004.2
2022-10-22T00:31:17.725Z,1004.2
2022-10-22T00:32:17.700Z,1004.2
2022-10-22T00:36:17.711Z,1004.3
2022-10-22T00:37:17.737Z,1004.3
2022-10-22T00:38:17.709Z,1004.3
2022-10-22T00:39:17.708Z,1004.3
2022-10-22T00:40:17.698Z,1004.2
2022-10-22T00:41:17.710Z,1004.2
2022-10-22T00:43:17.730Z,1004.2
2022-10-22T00:44:17.711Z,1004.3
2022-10-22T00:45:17.704Z,1004.2
2022-10-22T00:46:17.701Z,1004.2
2022-10-22T00:47:17.721Z,1004.3
2022-10-22T00:48:17.701Z,1004.3
2022-10-22T00:49:17.709Z,1004.2
2022-10-22T00:50:17.713Z,1004.2
2022-10-22T00:52:17.728Z,1004.2
2022-10-22T00:54:17.720Z,1004.2
2022-10-22T00:55:17.711Z,1004.2
2022-10-22T00:57:17.711Z,1004.1
2022-10-22T00:58:17.762Z,1004.1
2022-10-22T00:59:17.716Z,1004.1
2022-10-22T01:00:17.707Z,1004.1
2022-10-22T01:01:17.774Z,1004.1
2022-10-22T01:02:17.710Z,1004
2022-10-22T01:03:17.713Z,1004.1
2022-10-22T01:05:17.715Z,1004.2
2022-10-22T01:06:17.699Z,1004.2
2022-10-22T01:07:17.732Z,1004.2
2022-10-22T01:08:17.710Z,1004.1
2022-10-22T01:09:17.755Z,1004.2
2022-10-22T01:10:17.711Z,1004.2
2022-10-22T01:11:17.700Z,1004.2
2022-10-22T01:12:17.713Z,1004.2
2022-10-22T01:13:17.702Z,1004.2
2022-10-22T01:15:17.706Z,1004.1
2022-10-22T01:16:17.707Z,1004.1
2022-10-22T01:19:17.723Z,1004.1
2022-10-22T01:20:17.723Z,1004.1
2022-10-22T01:21:17.711Z,1004.1
2022-10-22T01:22:17.705Z,1004.1
2022-10-22T01:23:17.713Z,1004.1
2022-10-22T01:24:17.775Z,1004
2022-10-22T01:26:17.764Z,1004
2022-10-22T01:27:17.710Z,1004
2022-10-22T01:28:17.703Z,1004
2022-10-22T01:29:17.709Z,1004
2022-10-22T01:30:17.712Z,1004
2022-10-22T01:31:17.715Z,1004
2022-10-22T01:32:17.711Z,1004
2022-10-22T01:34:17.709Z,1004
2022-10-22T01:35:17.724Z,1004
2022-10-22T01:36:17.708Z,1004
2022-10-22T01:37:17.711Z,1004
2022-10-22T01:40:17.711Z,1003.9
2022-10-22T01:41:17.715Z,1003.9
2022-10-22T01:42:17.708Z,1003.9
2022-10-22T01:43:17.709Z,1004
2022-10-22T01:44:17.709Z,1004
2022-10-22T01:47:17.716Z,1003.9
2022-10-22T01:48:17.705Z,1003.9
2022-10-22T01:49:17.725Z,1003.9
2022-10-22T01:51:17.708Z,1003.9
2022-10-22T01:52:17.705Z,1003.9
2022-10-22T01:53:17.712Z,1003.9
2022-10-22T01:56:17.722Z,1003.9
2022-10-22T01:57:17.716Z,1003.8
2022-10-22T01:58:17.704Z,1003.9
2022-10-22T01:59:17.727Z,1003.9
2022-10-22T02:01:17.743Z,1003.9
2022-10-22T02:02:17.729Z,1003.9
2022-10-22T02:04:17.839Z,1003.9
2022-10-22T02:05:17.711Z,1003.9
2022-10-22T02:06:17.721Z,1003.9
2022-10-22T02:07:17.715Z,1003.9
2022-10-22T02:09:17.862Z,1003.8
2022-10-22T02:10:17.714Z,1003.8
2022-10-22T02:11:17.718Z,1003.9
2022-10-22T02:12:17.838Z,1003.9
2022-10-22T02:13:17.707Z,1003.8
2022-10-22T02:14:17.722Z,1003.8
2022-10-22T02:15:17.714Z,1003.8
2022-10-22T02:16:17.735Z,1003.8
2022-10-22T02:17:17.718Z,1003.8
2022-10-22T02:18:17.704Z,1003.8
2022-10-22T02:19:17.711Z,1003.8
2022-10-22T02:22:17.711Z,1003.8
2022-10-22T02:23:17.708Z,1003.9
2022-10-22T02:24:17.815Z,1003.8
2022-10-22T02:25:17.705Z,1003.8
2022-10-22T02:26:17.705Z,1003.8
2022-10-22T02:27:17.716Z,1003.8
2022-10-22T02:29:17.718Z,1003.8
2022-10-22T02:30:17.732Z,1003.8
2022-10-22T02:31:17.734Z,1003.8
2022-10-22T02:32:17.720Z,1003.9
2022-10-22T02:33:17.710Z,1003.9
2022-10-22T02:34:17.714Z,1004
2022-10-22T02:35:17.710Z,1003.9
2022-10-22T02:36:17.715Z,1003.9
2022-10-22T02:37:17.708Z,1003.9
2022-10-22T02:38:17.725Z,1003.9
2022-10-22T02:39:17.759Z,1004
2022-10-22T02:40:17.753Z,1004
2022-10-22T02:43:17.737Z,1004
2022-10-22T02:44:17.708Z,1004
2022-10-22T02:45:17.823Z,1004
2022-10-22T02:46:17.717Z,1004
2022-10-22T02:47:17.796Z,1004
2022-10-22T02:48:17.761Z,1004
2022-10-22T02:50:17.724Z,1004.1
2022-10-22T02:51:17.730Z,1004
2022-10-22T02:54:17.713Z,1004
2022-10-22T02:55:17.728Z,1004
2022-10-22T02:57:17.872Z,1004
2022-10-22T02:58:17.716Z,1004
2022-10-22T02:59:17.731Z,1004
2022-10-22T03:00:17.716Z,1004
2022-10-22T03:01:17.737Z,1004.1
2022-10-22T03:03:17.715Z,1004.1
2022-10-22T03:04:17.722Z,1004.1
2022-10-22T03:05:17.730Z,1004.1
2022-10-22T03:06:17.736Z,1004.1
2022-10-22T03:07:17.720Z,1004.1
2022-10-22T03:08:17.723Z,1004.1
2022-10-22T03:09:21.285Z,1004.1
2022-10-22T03:10:17.715Z,1004.1
2022-10-22T03:11:17.721Z,1004.1
2022-10-22T03:12:17.721Z,1004.1
2022-10-22T03:13:17.717Z,1004.1
2022-10-22T03:16:17.717Z,1004.1
2022-10-22T03:17:17.720Z,1004.1
2022-10-22T03:18:17.752Z,1004.2
2022-10-22T03:19:17.721Z,1004.1
2022-10-22T03:20:17.710Z,1004.2
2022-10-22T03:21:17.753Z,1004.1
2022-10-22T03:22:17.719Z,1004.1
2022-10-22T03:23:17.715Z,1004.1
2022-10-22T03:24:17.718Z,1004.1
2022-10-22T03:25:17.715Z,1004.1
2022-10-22T03:26:17.735Z,1004.1
2022-10-22T03:28:17.714Z,1004.1
2022-10-22T03:29:17.729Z,1004.2
2022-10-22T03:30:17.723Z,1004.1
2022-10-22T03:32:17.734Z,1004.1
2022-10-22T03:33:17.717Z,1004.1
2022-10-22T03:34:17.717Z,1004.1
2022-10-22T03:36:17.726Z,1004.1
2022-10-22T03:37:17.718Z,1004.2
2022-10-22T03:39:17.724Z,1004.2
2022-10-22T03:40:17.719Z,1004.2
2022-10-22T03:41:17.719Z,1004.2
2022-10-22T03:42:17.724Z,1004.2
2022-10-22T03:43:17.739Z,1004.2
2022-10-22T03:44:17.725Z,1004.2
2022-10-22T03:45:17.720Z,1004.2
2022-10-22T03:46:17.718Z,1004.2
2022-10-22T03:47:17.742Z,1004.2
2022-10-22T03:48:17.719Z,1004.2
2022-10-22T03:49:17.765Z,1004.3
2022-10-22T03:50:17.720Z,1004.3
2022-10-22T03:51:17.725Z,1004.3
2022-10-22T03:52:17.755Z,1004.3
2022-10-22T03:53:17.726Z,1004.4
2022-10-22T03:55:17.727Z,1004.4
2022-10-22T03:56:17.733Z,1004.4
2022-10-22T03:57:17.720Z,1004.4
2022-10-22T03:58:17.725Z,1004.3
2022-10-22T03:59:17.722Z,1004.3
2022-10-22T04:00:17.726Z,1004.3
2022-10-22T04:01:17.752Z,1004.3
2022-10-22T04:03:17.731Z,1004.4
2022-10-22T04:04:17.720Z,1004.4
2022-10-22T04:05:17.730Z,1004.4
2022-10-22T04:07:17.726Z,1004.4
2022-10-22T04:08:17.721Z,1004.4
2022-10-22T04:09:17.803Z,1004.4
2022-10-22T04:10:17.727Z,1004.4
2022-10-22T04:11:17.766Z,1004.4
2022-10-22T04:12:17.720Z,1004.4
2022-10-22T04:13:17.731Z,1004.4
2022-10-22T04:14:17.737Z,1004.4
2022-10-22T04:16:17.752Z,1004.4
2022-10-22T04:18:17.732Z,1004.4
2022-10-22T04:19:17.734Z,1004.4
2022-10-22T04:21:17.725Z,1004.4
2022-10-22T04:22:17.726Z,1004.5
2022-10-22T04:23:17.726Z,1004.4
2022-10-22T04:24:17.732Z,1004.4
2022-10-22T04:25:17.745Z,1004.5
2022-10-22T04:26:17.765Z,1004.5
2022-10-22T04:28:17.721Z,1004.4
2022-10-22T04:29:17.728Z,1004.5
2022-10-22T04:30:17.723Z,1004.5
2022-10-22T04:31:17.730Z,1004.5
2022-10-22T04:32:17.758Z,1004.5
2022-10-22T04:33:17.729Z,1004.5
2022-10-22T04:34:17.727Z,1004.5
2022-10-22T04:35:17.822Z,1004.5
2022-10-22T04:36:17.724Z,1004.5
2022-10-22T04:37:17.731Z,1004.5
2022-10-22T04:38:17.727Z,1004.5
2022-10-22T04:39:17.729Z,1004.5
2022-10-22T04:40:17.731Z,1004.5
2022-10-22T04:41:17.721Z,1004.6
2022-10-22T04:42:17.726Z,1004.5
2022-10-22T04:43:17.723Z,1004.5
2022-10-22T04:44:18.128Z,1004.5
2022-10-22T04:45:17.721Z,1004.5
2022-10-22T04:46:17.723Z,1004.5
2022-10-22T04:47:17.722Z,1004.5
2022-10-22T04:48:17.728Z,1004.5
2022-10-22T04:50:17.731Z,1004.6
2022-10-22T04:51:17.774Z,1004.6
2022-10-22T04:52:17.727Z,1004.6
2022-10-22T04:53:17.724Z,1004.6
2022-10-22T04:55:17.771Z,1004.6
2022-10-22T04:56:17.725Z,1004.6
2022-10-22T04:58:17.737Z,1004.6
2022-10-22T05:00:17.726Z,1004.6
2022-10-22T05:03:17.728Z,1004.7
2022-10-22T05:04:17.736Z,1004.7
2022-10-22T05:05:17.724Z,1004.7
2022-10-22T05:07:17.740Z,1004.7
2022-10-22T05:08:17.722Z,1004.7
2022-10-22T05:09:17.856Z,1004.7
2022-10-22T05:11:17.723Z,1004.7
2022-10-22T05:12:17.733Z,1004.7
2022-10-22T05:13:17.728Z,1004.7
2022-10-22T05:15:17.727Z,1004.8
2022-10-22T05:16:17.738Z,1004.8
2022-10-22T05:17:17.752Z,1004.8
2022-10-22T05:18:20.317Z,1004.8
2022-10-22T05:19:17.732Z,1004.8
2022-10-22T05:21:17.729Z,1004.8
2022-10-22T05:22:17.747Z,1004.8
2022-10-22T05:23:17.786Z,1004.8
2022-10-22T05:24:17.725Z,1004.8
2022-10-22T05:25:17.737Z,1004.8
2022-10-22T05:26:17.730Z,1004.8
2022-10-22T05:28:17.731Z,1004.9
2022-10-22T05:29:17.736Z,1004.8
2022-10-22T05:30:17.723Z,1004.9
2022-10-22T05:31:17.742Z,1004.9
2022-10-22T05:32:17.720Z,1004.9
2022-10-22T05:33:20.716Z,1004.9
2022-10-22T05:34:17.721Z,1004.9
2022-10-22T05:36:17.728Z,1004.9
2022-10-22T05:37:17.723Z,1004.9
2022-10-22T05:38:17.741Z,1004.9
2022-10-22T05:39:17.745Z,1004.9
2022-10-22T05:42:17.732Z,1004.9
2022-10-22T05:43:17.728Z,1004.9
2022-10-22T05:45:17.743Z,1004.9
2022-10-22T05:46:22.227Z,1004.9
2022-10-22T05:47:17.733Z,1004.9
2022-10-22T05:48:17.733Z,1004.9
2022-10-22T05:50:17.723Z,1004.9
2022-10-22T05:51:17.726Z,1004.9
2022-10-22T05:53:17.751Z,1005
2022-10-22T05:55:17.744Z,1005
2022-10-22T05:56:17.728Z,1004.9
2022-10-22T05:57:17.757Z,1005
2022-10-22T05:58:17.739Z,1005
2022-10-22T05:59:17.857Z,1005
2022-10-22T06:00:17.724Z,1005
2022-10-22T06:01:17.741Z,1005
2022-10-22T06:03:17.728Z,1005.1
2022-10-22T06:04:17.734Z,1005.1
2022-10-22T06:05:17.730Z,1005.1
2022-10-22T06:06:17.731Z,1005
2022-10-22T06:07:17.728Z,1005
2022-10-22T06:08:19.047Z,1005.1
2022-10-22T06:09:17.732Z,1005.1
2022-10-22T06:10:17.733Z,1005.1
2022-10-22T06:11:17.734Z,1005.1
2022-10-22T06:12:17.733Z,1005.1
2022-10-22T06:13:17.735Z,1005.1
2022-10-22T06:14:17.750Z,1005.1
2022-10-22T06:16:17.725Z,1005.2
2022-10-22T06:17:17.736Z,1005.2
2022-10-22T06:18:17.731Z,1005.2
2022-10-22T06:19:17.739Z,1005.1
2022-10-22T06:21:17.735Z,1005.2
2022-10-22T06:22:17.737Z,1005.2
2022-10-22T06:23:17.734Z,1005.2
2022-10-22T06:24:17.757Z,1005.3
2022-10-22T06:25:17.737Z,1005.3
2022-10-22T06:26:17.781Z,1005.3
2022-10-22T06:28:17.791Z,1005.3
2022-10-22T06:29:17.723Z,1005.4
2022-10-22T06:30:17.728Z,1005.4
2022-10-22T06:31:17.727Z,1005.3
2022-10-22T06:32:17.734Z,1005.4
2022-10-22T06:33:17.736Z,1005.4
2022-10-22T06:34:17.735Z,1005.4
2022-10-22T06:36:17.738Z,1005.5
2022-10-22T06:37:17.778Z,1005.5
2022-10-22T06:38:17.737Z,1005.5
2022-10-22T06:39:17.753Z,1005.5
2022-10-22T06:40:17.745Z,1005.5
2022-10-22T06:42:17.730Z,1005.6
2022-10-22T06:43:17.732Z,1005.6
2022-10-22T06:44:17.736Z,1005.6
2022-10-22T06:45:17.737Z,1005.6
2022-10-22T06:46:19.980Z,1005.6
2022-10-22T06:47:17.731Z,1005.6
2022-10-22T06:49:17.788Z,1005.6
2022-10-22T06:50:17.736Z,1005.6
2022-10-22T06:51:17.730Z,1005.6
2022-10-22T06:52:17.736Z,1005.7
2022-10-22T06:53:17.894Z,1005.7
2022-10-22T06:55:17.756Z,1005.7
2022-10-22T06:57:17.733Z,1005.7
2022-10-22T07:01:17.875Z,1005.9
2022-10-22T07:03:17.745Z,1005.9
2022-10-22T07:04:17.735Z,1006
2022-10-22T07:05:17.764Z,1006
2022-10-22T07:06:17.737Z,1006
2022-10-22T07:07:17.733Z,1006
2022-10-22T07:08:17.726Z,1006.1
2022-10-22T07:10:17.740Z,1006
2022-10-22T07:11:17.741Z,1006.1
2022-10-22T07:12:17.744Z,1006.1
2022-10-22T07:13:17.731Z,1006
2022-10-22T07:14:17.738Z,1006.1
2022-10-22T07:15:17.732Z,1006.1
2022-10-22T07:16:17.732Z,1006.1
2022-10-22T07:17:17.736Z,1006.1
2022-10-22T07:18:17.748Z,1006.1
2022-10-22T07:19:17.734Z,1006.1
2022-10-22T07:20:17.744Z,1006.1
2022-10-22T07:21:17.737Z,1006.1
2022-10-22T07:24:17.733Z,1006.1
2022-10-22T07:25:17.730Z,1006.1
2022-10-22T07:26:17.767Z,1006.2
2022-10-22T07:27:17.731Z,1006.1
2022-10-22T07:28:17.726Z,1006.1
2022-10-22T07:29:17.745Z,1006.2
2022-10-22T07:30:17.746Z,1006.2
2022-10-22T07:32:20.608Z,1006.3
2022-10-22T07:33:17.741Z,1006.2
2022-10-22T07:34:17.753Z,1006.2
2022-10-22T07:36:17.942Z,1006.2
2022-10-22T07:37:17.742Z,1006.2
2022-10-22T07:38:17.740Z,1006.2
2022-10-22T07:39:17.737Z,1006.2
2022-10-22T07:40:17.741Z,1006.3
2022-10-22T07:42:17.774Z,1006.3
2022-10-22T07:43:17.739Z,1006.3
2022-10-22T07:45:17.744Z,1006.4
2022-10-22T07:46:17.754Z,1006.4
2022-10-22T07:48:17.741Z,1006.4
2022-10-22T07:49:17.748Z,1006.3
2022-10-22T07:50:17.740Z,1006.3
2022-10-22T07:51:17.744Z,1006.4
2022-10-22T07:53:17.735Z,1006.3
2022-10-22T07:54:17.743Z,1006.3
2022-10-22T07:55:17.757Z,1006.4
2022-10-22T07:56:17.755Z,1006.4
2022-10-22T07:57:17.786Z,1006.4
2022-10-22T07:58:17.792Z,1006.4
2022-10-22T07:59:17.754Z,1006.5
2022-10-22T08:01:17.857Z,1006.5
2022-10-22T08:02:17.747Z,1006.5
2022-10-22T08:03:17.799Z,1006.5
2022-10-22T08:04:17.768Z,1006.5
2022-10-22T08:05:17.742Z,1006.5
2022-10-22T08:06:17.761Z,1006.6
2022-10-22T08:07:17.836Z,1006.6
2022-10-22T08:09:17.748Z,1006.5
2022-10-22T08:10:17.738Z,1006.6
2022-10-22T08:11:17.749Z,1006.6
2022-10-22T08:12:17.748Z,1006.6
2022-10-22T08:14:17.742Z,1006.7
2022-10-22T08:15:17.741Z,1006.8
2022-10-22T08:16:17.749Z,1006.6
2022-10-22T08:17:17.741Z,1006.7
2022-10-22T08:18:17.755Z,1006.7
2022-10-22T08:19:17.753Z,1006.7
2022-10-22T08:21:17.754Z,1006.7
2022-10-22T08:22:17.750Z,1006.7
2022-10-22T08:24:17.768Z,1006.8
2022-10-22T08:26:17.754Z,1006.9
2022-10-22T08:27:17.755Z,1006.9
2022-10-22T08:28:21.185Z,1006.8
2022-10-22T08:29:17.760Z,1006.8
2022-10-22T08:30:17.820Z,1006.8
2022-10-22T08:31:17.738Z,1006.9
2022-10-22T08:32:17.839Z,1007
2022-10-22T08:34:17.750Z,1006.9
2022-10-22T08:35:17.833Z,1006.9
2022-10-22T08:36:17.746Z,1007
2022-10-22T08:37:17.767Z,1007
2022-10-22T08:39:17.745Z,1007
2022-10-22T08:40:17.762Z,1007
2022-10-22T08:42:17.754Z,1007.1
2022-10-22T08:43:17.752Z,1007.1
2022-10-22T08:44:17.752Z,1007.1
2022-10-22T08:45:17.763Z,1007.1
2022-10-22T08:46:17.754Z,1007.1
2022-10-22T08:47:20.064Z,1007.2
2022-10-22T08:48:17.754Z,1007.1
2022-10-22T08:49:17.748Z,1007.1
2022-10-22T08:50:17.764Z,1007.3
2022-10-22T08:52:17.755Z,1007.2
2022-10-22T08:53:17.752Z,1007.2
2022-10-22T08:54:17.746Z,1007.2
2022-10-22T08:55:17.785Z,1007.2
2022-10-22T08:56:17.751Z,1007.2
2022-10-22T08:57:17.788Z,1007.2
2022-10-22T08:58:17.754Z,1007.2
2022-10-22T08:59:17.769Z,1007.2
2022-10-22T09:00:17.763Z,1007.2
2022-10-22T09:01:17.746Z,1007.3
2022-10-22T09:03:17.753Z,1007.3
2022-10-22T09:04:17.757Z,1007.2
2022-10-22T09:05:17.756Z,1007.3
2022-10-22T09:06:17.745Z,1007.3
2022-10-22T09:07:17.761Z,1007.3
2022-10-22T09:09:17.933Z,1007.3
2022-10-22T09:10:17.764Z,1007.3
2022-10-22T09:11:17.774Z,1007.3
2022-10-22T09:12:20.234Z,1007.3
2022-10-22T09:13:17.762Z,1007.4
2022-10-22T09:14:17.777Z,1007.4
2022-10-22T09:16:17.761Z,1007.4
2022-10-22T09:17:17.753Z,1007.4
2022-10-22T09:18:17.762Z,1007.4
2022-10-22T09:19:17.778Z,1007.4
2022-10-22T09:20:17.765Z,1007.4
2022-10-22T09:22:17.759Z,1007.4
2022-10-22T09:24:17.752Z,1007.5
2022-10-22T09:25:17.754Z,1007.4
2022-10-22T09:26:17.772Z,1007.4
2022-10-22T09:28:17.753Z,1007.4
2022-10-22T09:30:17.876Z,1007.4
2022-10-22T09:31:17.760Z,1007.5
2022-10-22T09:32:17.772Z,1007.5
2022-10-22T09:33:21.430Z,1007.5
2022-10-22T09:34:17.764Z,1007.6
2022-10-22T09:35:17.755Z,1007.5
2022-10-22T09:36:17.753Z,1007.5
2022-10-22T09:38:17.763Z,1007.5
2022-10-22T09:39:17.763Z,1007.5
2022-10-22T09:40:17.802Z,1007.6
2022-10-22T09:41:17.761Z,1007.6
2022-10-22T09:43:17.754Z,1007.5
2022-10-22T09:45:17.769Z,1007.6
2022-10-22T09:46:17.764Z,1007.5
2022-10-22T09:47:17.752Z,1007.6
2022-10-22T09:48:17.756Z,1007.7
2022-10-22T09:49:17.764Z,1007.7
2022-10-22T09:51:17.780Z,1007.7
2022-10-22T09:52:17.761Z,1007.7
2022-10-22T09:53:17.763Z,1007.7
2022-10-22T09:55:17.773Z,1007.7
2022-10-22T09:56:17.782Z,1007.7
2022-10-22T09:57:17.753Z,1007.7
2022-10-22T09:58:17.766Z,1007.7
2022-10-22T09:59:17.762Z,1007.7
2022-10-22T10:00:17.765Z,1007.8
2022-10-22T10:01:17.789Z,1007.8
2022-10-22T10:02:37.646Z,1007.8
2022-10-22T10:03:17.879Z,1007.8
2022-10-22T10:04:17.847Z,1007.8
2022-10-22T10:05:17.759Z,1007.8
2022-10-22T10:06:17.772Z,1007.8
2022-10-22T10:09:17.858Z,1007.8
2022-10-22T10:10:17.762Z,1007.8
2022-10-22T10:11:17.766Z,1007.9
2022-10-22T10:13:17.754Z,1007.9
2022-10-22T10:14:17.759Z,1007.9
2022-10-22T10:16:17.753Z,1007.9
2022-10-22T10:17:17.764Z,1007.9
2022-10-22T10:19:17.775Z,1008
2022-10-22T10:21:17.764Z,1007.9
2022-10-22T10:23:19.526Z,1007.9
2022-10-22T10:24:18.215Z,1008
2022-10-22T10:25:17.769Z,1008
2022-10-22T10:27:18.015Z,1008
2022-10-22T10:28:17.758Z,1008
2022-10-22T10:29:17.782Z,1008
2022-10-22T10:30:17.776Z,1008
2022-10-22T10:31:17.765Z,1008
2022-10-22T10:32:21.123Z,1008
2022-10-22T10:33:17.926Z,1008.1
2022-10-22T10:34:17.772Z,1008.1
2022-10-22T10:35:17.757Z,1008.1
2022-10-22T10:37:17.760Z,1008.1
2022-10-22T10:38:17.784Z,1008.1
2022-10-22T10:39:17.774Z,1008.1
2022-10-22T10:40:17.759Z,1008.1
2022-10-22T10:41:17.761Z,1008.1
2022-10-22T10:43:17.841Z,1008.2
2022-10-22T10:44:17.772Z,1008.1
2022-10-22T10:45:17.775Z,1008.1
2022-10-22T10:48:17.857Z,1008.2
2022-10-22T10:49:18.067Z,1008.2
2022-10-22T10:50:17.764Z,1008.2
2022-10-22T10:52:20.497Z,1008.2
2022-10-22T10:53:17.780Z,1008.2
2022-10-22T10:54:17.759Z,1008.2
2022-10-22T10:56:17.824Z,1008.2
2022-10-22T10:57:17.764Z,1008.2
2022-10-22T10:58:17.928Z,1008.2
2022-10-22T10:59:17.779Z,1008.2
2022-10-22T11:00:17.799Z,1008.2
2022-10-22T11:01:17.823Z,1008.1
2022-10-22T11:02:17.780Z,1008.2
2022-10-22T11:03:17.789Z,1008.2
2022-10-22T11:04:17.769Z,1008.2
2022-10-22T11:05:17.771Z,1008.2
2022-10-22T11:06:19.439Z,1008.2
2022-10-22T11:09:17.836Z,1008.2
2022-10-22T11:10:17.771Z,1008.2
2022-10-22T11:11:17.779Z,1008.2
2022-10-22T11:12:17.768Z,1008.2
2022-10-22T11:14:17.777Z,1008.2
2022-10-22T11:17:17.770Z,1008.2
2022-10-22T11:18:17.830Z,1008.2
2022-10-22T11:19:27.673Z,1008.2
2022-10-22T11:20:17.764Z,1008.2
2022-10-22T11:21:17.762Z,1008.3
2022-10-22T11:22:17.779Z,1008.2
2022-10-22T11:23:20.061Z,1008.3
2022-10-22T11:24:17.765Z,1008.3
2022-10-22T11:25:17.775Z,1008.3
2022-10-22T11:26:17.762Z,1008.3
2022-10-22T11:27:17.784Z,1008.3
2022-10-22T11:28:17.765Z,1008.3
2022-10-22T11:30:17.766Z,1008.3
2022-10-22T11:31:17.770Z,1008.3
2022-10-22T11:32:17.765Z,1008.3
2022-10-22T11:33:17.769Z,1008.3
2022-10-22T11:34:34.479Z,1008.3
2022-10-22T11:35:20.177Z,1008.2
2022-10-22T11:36:17.771Z,1008.3
2022-10-22T11:38:17.766Z,1008.3
2022-10-22T11:39:17.778Z,1008.3
2022-10-22T11:41:17.771Z,1008.3
2022-10-22T11:42:17.778Z,1008.3
2022-10-22T11:43:17.769Z,1008.4
2022-10-22T11:44:17.782Z,1008.4
2022-10-22T11:45:17.771Z,1008.4
2022-10-22T11:46:17.806Z,1008.4
2022-10-22T11:47:17.779Z,1008.4
2022-10-22T11:48:17.766Z,1008.4
2022-10-22T11:49:17.769Z,1008.4
2022-10-22T11:51:17.773Z,1008.4
2022-10-22T11:52:17.780Z,1008.4
2022-10-22T11:53:17.770Z,1008.4
2022-10-22T11:55:17.775Z,1008.4
2022-10-22T11:56:17.766Z,1008.4
2022-10-22T11:57:17.765Z,1008.4
2022-10-22T11:59:17.782Z,1008.4
2022-10-22T12:00:17.772Z,1008.4
2022-10-22T12:01:17.764Z,1008.3
2022-10-22T12:04:18.360Z,1008.4
2022-10-22T12:07:18.052Z,1008.4
2022-10-22T12:08:17.767Z,1008.3
2022-10-22T12:09:18.099Z,1008.4
2022-10-22T12:10:18.518Z,1008.5
2022-10-22T12:11:17.938Z,1008.4
2022-10-22T12:12:18.211Z,1008.4
2022-10-22T12:13:17.925Z,1008.4
2022-10-22T12:16:27.250Z,1008.4
2022-10-22T12:17:17.822Z,1008.4
2022-10-22T12:18:17.786Z,1008.4
2022-10-22T12:20:18.027Z,1008.3
2022-10-22T12:21:17.887Z,1008.3
2022-10-22T12:23:17.772Z,1008.3
2022-10-22T13:03:18.021Z,1008.1
2022-10-22T14:16:54.355Z,1008.5
2022-10-22T14:37:05.866Z,1008.5
2022-10-22T14:37:24.404Z,1008.3
2022-10-22T14:38:19.967Z,1008.2
2022-10-22T14:39:15.551Z,1008.2
2022-10-22T14:43:17.824Z,1008.5
2022-10-22T14:44:17.792Z,1008.5
2022-10-22T14:45:17.809Z,1008.5
2022-10-22T14:46:17.794Z,1008.5
2022-10-22T14:47:17.793Z,1008.4
2022-10-22T14:49:17.915Z,1008.5
2022-10-22T14:50:17.806Z,1008.5
2022-10-22T14:52:18.011Z,1008.6
2022-10-22T14:53:17.833Z,1008.6
2022-10-22T14:54:17.924Z,1008.6
2022-10-22T14:56:17.794Z,1008.6
2022-10-22T14:57:17.836Z,1008.6
2022-10-22T14:58:17.799Z,1008.6
2022-10-22T14:59:17.796Z,1008.6
2022-10-22T15:00:17.830Z,1008.6
2022-10-22T15:01:17.802Z,1008.6
2022-10-22T15:02:17.818Z,1008.6
2022-10-22T15:03:17.811Z,1008.7
2022-10-22T15:05:17.804Z,1008.6
2022-10-22T15:06:17.801Z,1008.6
2022-10-22T15:08:17.792Z,1008.6
2022-10-22T15:09:17.864Z,1008.6
2022-10-22T15:10:17.845Z,1008.6
2022-10-22T15:12:17.801Z,1008.7
2022-10-22T15:14:17.798Z,1008.7
2022-10-22T15:16:17.819Z,1008.7
2022-10-22T15:17:17.803Z,1008.7
2022-10-22T15:18:17.798Z,1008.7
2022-10-22T15:19:17.808Z,1008.7
2022-10-22T15:20:17.798Z,1008.7
2022-10-22T15:21:17.791Z,1008.7
2022-10-22T15:22:17.806Z,1008.7
2022-10-22T15:23:17.815Z,1008.7
2022-10-22T15:25:17.798Z,1008.7
2022-10-22T15:26:17.806Z,1008.7
2022-10-22T15:27:17.811Z,1008.7
2022-10-22T15:28:17.806Z,1008.8
2022-10-22T15:30:17.811Z,1008.7
2022-10-22T15:31:17.829Z,1008.8
2022-10-22T15:32:17.803Z,1008.8
2022-10-22T15:33:17.802Z,1008.8
2022-10-22T15:34:17.808Z,1008.8
2022-10-22T15:36:17.807Z,1008.8
2022-10-22T15:38:18.008Z,1008.8
2022-10-22T15:39:18.116Z,1008.8
2022-10-22T15:41:17.810Z,1008.8
2022-10-22T15:42:17.805Z,1008.8
2022-10-22T15:43:17.801Z,1008.8
2022-10-22T15:46:17.901Z,1008.9
2022-10-22T15:47:18.013Z,1008.9
2022-10-22T15:48:17.806Z,1008.9
2022-10-22T15:49:17.815Z,1008.9
2022-10-22T15:50:17.837Z,1008.9
2022-10-22T16:06:17.836Z,1008.9
2022-10-22T16:07:19.846Z,1008.9
2022-10-22T16:08:34.271Z,1008.9
2022-10-22T16:15:05.218Z,1009
2022-10-22T16:29:56.361Z,1009.1
2022-10-22T16:41:46.393Z,1009
2022-10-22T16:47:21.905Z,1009
2022-10-22T16:48:17.708Z,1009
2022-10-22T16:48:54.534Z,1009
2022-10-22T16:51:04.204Z,1009
2022-10-22T16:52:18.293Z,1009
2022-10-22T16:52:55.357Z,1009.1
2022-10-22T16:55:17.816Z,1009.1
2022-10-22T16:57:17.813Z,1009.1
2022-10-22T16:58:17.840Z,1009
2022-10-22T16:59:17.819Z,1009.1
2022-10-22T17:00:17.817Z,1009
2022-10-22T17:02:17.809Z,1009.1
2022-10-22T17:03:17.816Z,1009.1
2022-10-22T17:04:17.827Z,1009.1
2022-10-22T17:05:17.839Z,1009.1
2022-10-22T17:06:17.811Z,1009.1
2022-10-22T17:07:17.820Z,1009.1
2022-10-22T17:08:17.809Z,1009.1
2022-10-22T17:09:17.908Z,1009.2
2022-10-22T17:11:17.815Z,1009.1
2022-10-22T17:12:17.841Z,1009.2
2022-10-22T17:13:17.825Z,1009.2
2022-10-22T17:14:17.816Z,1009.2
2022-10-22T17:16:17.822Z,1009.3
2022-10-22T17:17:17.864Z,1009.3
2022-10-22T17:19:17.829Z,1009.2
2022-10-22T17:20:17.822Z,1009.3
2022-10-22T17:23:17.835Z,1009.3
2022-10-22T17:24:17.821Z,1009.2
2022-10-22T17:25:17.832Z,1009.3
2022-10-22T17:27:17.825Z,1009.3
2022-10-22T17:28:17.812Z,1009.3
2022-10-22T17:29:17.814Z,1009.3
2022-10-22T17:33:17.841Z,1009.3
2022-10-22T17:34:17.819Z,1009.3
2022-10-22T17:35:17.860Z,1009.3
2022-10-22T17:37:17.817Z,1009.4
2022-10-22T17:38:17.818Z,1009.4
2022-10-22T17:39:17.817Z,1009.4
2022-10-22T17:40:17.848Z,1009.4
2022-10-22T17:41:17.812Z,1009.4
2022-10-22T17:42:17.821Z,1009.4
2022-10-22T17:43:17.828Z,1009.4
2022-10-22T17:44:17.823Z,1009.4
2022-10-22T17:47:17.836Z,1009.5
2022-10-22T17:48:17.831Z,1009.4
2022-10-22T17:49:17.886Z,1009.4
2022-10-22T17:50:17.824Z,1009.5
2022-10-22T17:51:17.815Z,1009.5
2022-10-22T17:52:17.839Z,1009.5
2022-10-22T17:53:17.823Z,1009.5
2022-10-22T17:54:17.858Z,1009.5
2022-10-22T17:56:17.818Z,1009.4
2022-10-22T17:59:17.908Z,1009.5
2022-10-22T18:01:17.966Z,1009.5
2022-10-22T18:02:17.827Z,1009.5
2022-10-22T18:03:17.829Z,1009.5
2022-10-22T18:04:17.824Z,1009.5
2022-10-22T18:05:17.820Z,1009.5
2022-10-22T18:07:17.825Z,1009.5
2022-10-22T18:08:17.859Z,1009.5
2022-10-22T18:09:18.807Z,1009.5
2022-10-22T18:11:17.826Z,1009.5
2022-10-22T18:12:17.833Z,1009.5
2022-10-22T18:13:17.917Z,1009.5
2022-10-22T18:15:17.833Z,1009.4
2022-10-22T18:16:17.839Z,1009.5
2022-10-22T18:17:17.829Z,1009.4
2022-10-22T18:19:17.833Z,1009.4
2022-10-22T18:20:17.836Z,1009.5
2022-10-22T18:21:17.825Z,1009.4
2022-10-22T18:22:17.887Z,1009.4
2022-10-22T18:23:17.823Z,1009.5
2022-10-22T18:24:17.827Z,1009.4
2022-10-22T18:25:17.828Z,1009.4
2022-10-22T18:26:18.461Z,1009.5
2022-10-22T18:28:17.831Z,1009.5
2022-10-22T18:29:17.827Z,1009.5
2022-10-22T18:30:17.832Z,1009.5
2022-10-22T18:31:17.826Z,1009.5
2022-10-22T18:32:17.854Z,1009.5
2022-10-22T18:33:17.829Z,1009.5
2022-10-22T18:34:20.393Z,1009.5
2022-10-22T18:35:17.837Z,1009.5
2022-10-22T18:36:17.819Z,1009.5
2022-10-22T18:37:17.824Z,1009.5
2022-10-22T18:38:17.821Z,1009.5
2022-10-22T18:40:17.840Z,1009.5
2022-10-22T18:41:17.900Z,1009.5
2022-10-22T18:42:17.838Z,1009.4
2022-10-22T18:44:17.823Z,1009.4